createdAt,value
2023-03-03T00:00:10.100Z,1.8
2023-03-03T00:05:10.141Z,1.8
2023-03-03T00:10:10.096Z,1.7
2023-03-03T00:15:10.091Z,1.7
2023-03-03T00:20:10.112Z,1.7
2023-03-03T00:25:10.106Z,1.7
2023-03-03T00:30:10.096Z,1.6
2023-03-03T00:35:10.137Z,1.5
2023-03-03T00:40:10.101Z,1.5
2023-03-03T00:45:10.109Z,1.6
2023-03-03T00:50:10.123Z,1.6
2023-03-03T00:55:10.115Z,1.6
2023-03-03T01:00:10.091Z,1.6
2023-03-03T01:05:10.112Z,1.6
2023-03-03T01:10:10.101Z,1.5
2023-03-03T01:15:10.098Z,1.5
2023-03-03T01:20:10.100Z,1.5
2023-03-03T01:25:10.088Z,1.4
2023-03-03T01:30:10.099Z,1.3
2023-03-03T01:35:10.120Z,1.3
2023-03-03T01:40:10.094Z,1.3
2023-03-03T01:45:10.105Z,1.3
2023-03-03T01:50:10.122Z,1.3
2023-03-03T01:55:10.149Z,1.2
2023-03-03T02:00:10.098Z,1.3
2023-03-03T02:05:10.118Z,1.3
2023-03-03T02:10:10.094Z,1.2
2023-03-03T02:15:10.103Z,1.2
2023-03-03T02:20:10.128Z,1.2
2023-03-03T02:25:10.105Z,1.1
2023-03-03T02:30:10.114Z,1.2
2023-03-03T02:35:10.124Z,1.1
2023-03-03T02:40:10.105Z,1.2
2023-03-03T02:45:10.107Z,1.1
2023-03-03T02:50:10.110Z,1
2023-03-03T02:55:10.113Z,1.1
2023-03-03T03:00:10.102Z,1
2023-03-03T03:05:10.131Z,1.1
2023-03-03T03:10:10.101Z,1.1
2023-03-03T03:15:10.105Z,1.1
2023-03-03T03:20:10.109Z,1
2023-03-03T03:25:10.092Z,1
2023-03-03T03:30:10.105Z,1
2023-03-03T03:35:10.130Z,0.9
2023-03-03T03:40:10.120Z,0.9
2023-03-03T03:45:10.103Z,0.8
2023-03-03T03:50:10.126Z,0.7
2023-03-03T03:55:10.107Z,0.7
2023-03-03T04:00:10.098Z,0.6
2023-03-03T04:05:10.121Z,0.6
2023-03-03T04:10:10.106Z,0.5
2023-03-03T04:15:10.113Z,0.4
2023-03-03T04:20:10.130Z,0.4
2023-03-03T04:25:10.114Z,0.5
2023-03-03T04:30:10.129Z,0.5
2023-03-03T04:35:10.142Z,0.5
2023-03-03T04:40:10.145Z,0.5
2023-03-03T04:45:10.117Z,0.5
2023-03-03T04:50:10.143Z,0.5
2023-03-03T04:55:10.614Z,0.5
2023-03-03T05:00:10.116Z,0.5
2023-03-03T05:05:10.137Z,0.5
2023-03-03T05:10:10.100Z,0.6
2023-03-03T05:15:10.113Z,0.4
2023-03-03T05:20:10.116Z,0.3
2023-03-03T05:25:10.101Z,0.4
2023-03-03T05:30:10.090Z,0.3
2023-03-03T05:35:10.467Z,0.2
2023-03-03T05:40:10.097Z,0.1
2023-03-03T05:45:10.097Z,0.1
2023-03-03T05:50:10.126Z,0.1
2023-03-03T05:55:10.118Z,0.1
2023-03-03T06:00:10.094Z,0.1
2023-03-03T06:05:10.135Z,0.1
2023-03-03T06:10:10.102Z,-0.1
2023-03-03T06:15:10.132Z,-0.1
2023-03-03T06:20:10.147Z,0.1
2023-03-03T06:25:10.105Z,0.1
2023-03-03T06:30:10.101Z,0.1
2023-03-03T06:35:10.132Z,0.1
2023-03-03T06:40:10.111Z,0.1
2023-03-03T06:45:10.107Z,0.1
2023-03-03T06:50:10.113Z,0.2
2023-03-03T06:55:10.108Z,0.3
2023-03-03T07:00:10.095Z,0.4
2023-03-03T07:05:10.128Z,0.4
2023-03-03T07:10:10.110Z,0.5
2023-03-03T07:15:10.107Z,0.6
2023-03-03T07:20:10.125Z,0.5
2023-03-03T07:25:10.118Z,0.5
2023-03-03T07:30:10.109Z,0.6
2023-03-03T07:35:10.150Z,0.7
2023-03-03T07:40:10.104Z,0.8
2023-03-03T07:45:10.115Z,0.9
2023-03-03T07:50:10.136Z,1
2023-03-03T07:55:10.120Z,0.9
2023-03-03T08:00:10.116Z,1
2023-03-03T08:05:10.275Z,1
2023-03-03T08:10:10.171Z,1
2023-03-03T08:15:10.113Z,1.1
2023-03-03T08:20:10.128Z,1.3
2023-03-03T08:25:10.115Z,1.4
2023-03-03T08:30:10.104Z,1.4
2023-03-03T08:35:10.114Z,1.5
2023-03-03T08:40:10.086Z,1.8
2023-03-03T08:45:10.158Z,1.5
2023-03-03T08:50:10.116Z,1.5
2023-03-03T08:55:10.128Z,1.7
2023-03-03T09:00:10.100Z,1.6
2023-03-03T09:05:10.121Z,1.7
2023-03-03T09:10:10.102Z,1.8
2023-03-03T09:15:10.109Z,1.9
2023-03-03T09:20:10.100Z,2.3
2023-03-03T09:25:10.102Z,2.4
2023-03-03T09:30:10.108Z,2.7
2023-03-03T09:35:10.135Z,2.8
2023-03-03T09:40:10.125Z,2.6
2023-03-03T09:45:10.150Z,2.9
2023-03-03T09:50:10.142Z,3.2
2023-03-03T09:55:10.145Z,3.3
2023-03-03T10:00:10.105Z,3.2
2023-03-03T10:05:10.128Z,3.4
2023-03-03T10:10:10.103Z,3.4
2023-03-03T10:15:10.094Z,3.9
2023-03-03T10:20:10.119Z,4.1
2023-03-03T10:25:10.107Z,3.9
2023-03-03T10:30:10.102Z,4.2
2023-03-03T10:35:10.123Z,4.3
2023-03-03T10:40:10.102Z,4.5
2023-03-03T10:45:10.099Z,4.8
2023-03-03T10:50:10.130Z,4.7
2023-03-03T10:55:10.090Z,4.8
2023-03-03T11:00:10.106Z,4.9
2023-03-03T11:05:10.123Z,5.1
2023-03-03T11:10:10.105Z,5
2023-03-03T11:15:10.098Z,5.3
2023-03-03T11:20:10.141Z,5.5
2023-03-03T11:25:10.102Z,5.8
2023-03-03T11:30:10.100Z,5.6
2023-03-03T11:35:10.117Z,6.1
2023-03-03T11:40:10.098Z,6.1
2023-03-03T11:45:10.105Z,6.1
2023-03-03T11:50:10.153Z,6.3
2023-03-03T11:55:10.118Z,6.4
2023-03-03T12:00:10.095Z,6.7
2023-03-03T12:05:10.143Z,6.9
2023-03-03T12:10:10.094Z,6.8
2023-03-03T12:15:10.102Z,6.9
2023-03-03T12:20:10.116Z,7.3
2023-03-03T12:25:10.131Z,7.4
2023-03-03T12:30:10.110Z,7.4
2023-03-03T12:35:10.151Z,7.5
2023-03-03T12:40:10.123Z,7.4
2023-03-03T12:45:10.143Z,8
2023-03-03T12:50:10.158Z,7.8
2023-03-03T12:55:10.128Z,8.1
2023-03-03T13:00:10.128Z,8.3
2023-03-03T13:05:10.139Z,8.1
2023-03-03T13:10:10.136Z,8.2
2023-03-03T13:15:10.145Z,8.2
2023-03-03T13:20:10.137Z,8.5
2023-03-03T13:25:10.132Z,8.3
2023-03-03T13:30:10.127Z,8.8
2023-03-03T13:35:10.145Z,8.6
2023-03-03T13:40:10.140Z,8.4
2023-03-03T13:45:10.131Z,8.3
2023-03-03T13:50:10.140Z,8.7
2023-03-03T13:55:10.129Z,8.8
2023-03-03T14:00:10.119Z,8.9
2023-03-03T14:05:10.155Z,8.7
2023-03-03T14:10:10.140Z,9.5
2023-03-03T14:15:10.164Z,9.4
2023-03-03T14:20:10.142Z,9.2
2023-03-03T14:25:10.127Z,9.2
2023-03-03T14:30:10.181Z,9.6
2023-03-03T14:35:10.150Z,9.5
2023-03-03T14:40:10.195Z,9.2
2023-03-03T14:45:20.073Z,9
2023-03-03T14:50:10.204Z,8.8
2023-03-03T14:55:10.133Z,9
2023-03-03T15:00:10.135Z,9.1
2023-03-03T15:05:10.196Z,9.2
2023-03-03T15:10:10.228Z,9.1
2023-03-03T15:15:14.681Z,9.1
2023-03-03T15:20:10.151Z,9
2023-03-03T15:25:10.128Z,9.4
2023-03-03T15:30:10.121Z,9.4
2023-03-03T15:35:10.160Z,9.6
2023-03-03T15:40:10.115Z,9.3
2023-03-03T15:45:10.130Z,9
2023-03-03T15:50:10.124Z,9
2023-03-03T15:55:10.121Z,8.9
2023-03-03T16:00:10.090Z,8.9
2023-03-03T16:05:10.109Z,8.9
2023-03-03T16:10:10.103Z,8.9
2023-03-03T16:15:10.102Z,9
2023-03-03T16:20:10.114Z,9
2023-03-03T16:25:10.102Z,8.9
2023-03-03T16:30:10.101Z,8.5
2023-03-03T16:35:10.122Z,8.3
2023-03-03T16:40:10.108Z,7.9
2023-03-03T16:45:10.113Z,7.6
2023-03-03T16:50:10.113Z,7.2
2023-03-03T16:55:10.116Z,6.8
2023-03-03T17:00:10.111Z,6.6
2023-03-03T17:05:10.209Z,6.1
2023-03-03T17:10:10.101Z,5.7
2023-03-03T17:15:10.098Z,5.2
2023-03-03T17:20:10.115Z,4.8
2023-03-03T17:25:10.098Z,4.6
2023-03-03T17:30:10.093Z,4.4
2023-03-03T17:35:10.126Z,4.2
2023-03-03T17:40:10.101Z,4
2023-03-03T17:45:10.098Z,3.7
2023-03-03T17:50:10.102Z,3.4
2023-03-03T17:55:10.110Z,3.4
2023-03-03T18:00:10.105Z,3.5
2023-03-03T18:05:10.117Z,3.6
2023-03-03T18:10:10.098Z,3.5
2023-03-03T18:15:10.099Z,3.3
2023-03-03T18:20:10.122Z,3.1
2023-03-03T18:25:10.100Z,3
2023-03-03T18:30:10.104Z,2.9
2023-03-03T18:35:10.224Z,2.7
2023-03-03T18:40:10.114Z,2.5
2023-03-03T18:45:10.108Z,2.3
2023-03-03T18:50:10.422Z,2.2
2023-03-03T18:55:10.111Z,2
2023-03-03T19:00:10.101Z,1.9
2023-03-03T19:05:10.276Z,2.2
2023-03-03T19:10:10.105Z,2.4
2023-03-03T19:15:11.988Z,2.5
2023-03-03T19:20:10.109Z,2.6
2023-03-03T19:25:10.096Z,2.5
2023-03-03T19:30:10.109Z,2.1
2023-03-03T19:35:10.127Z,1.8
2023-03-03T19:40:10.108Z,1.6
2023-03-03T19:45:10.110Z,1.8
2023-03-03T19:50:10.120Z,2
2023-03-03T19:55:10.126Z,2.3
2023-03-03T20:00:10.087Z,2.3
2023-03-03T20:05:10.143Z,2.3
2023-03-03T20:10:10.090Z,2.4
2023-03-03T20:15:10.106Z,2.4
2023-03-03T20:20:10.121Z,1.9
2023-03-03T20:25:10.132Z,1.4
2023-03-03T20:30:10.089Z,0.8
2023-03-03T20:35:10.121Z,0.6
2023-03-03T20:40:10.098Z,0.2
2023-03-03T20:45:10.110Z,0.1
2023-03-03T20:50:10.126Z,0.1
2023-03-03T20:55:10.713Z,-0.1
2023-03-03T21:00:10.107Z,-0.1
2023-03-03T21:05:10.131Z,-0.2
2023-03-03T21:10:10.122Z,-0.4
2023-03-03T21:15:10.232Z,-0.6
2023-03-03T21:20:10.164Z,-0.7
2023-03-03T21:25:10.125Z,-0.9
2023-03-03T21:30:10.303Z,-0.8
2023-03-03T21:35:10.117Z,-1
2023-03-03T21:40:10.101Z,-1.2
2023-03-03T21:45:10.116Z,-1.3
2023-03-03T21:50:10.122Z,-1.2
2023-03-03T21:55:10.111Z,-1.4
2023-03-03T22:00:10.113Z,-1.2
2023-03-03T22:05:10.131Z,-1.4
2023-03-03T22:10:10.169Z,-1.7
2023-03-03T22:15:10.104Z,-1.8
2023-03-03T22:20:10.117Z,-1.6
2023-03-03T22:25:10.116Z,-1.6
2023-03-03T22:30:10.102Z,-1.4
2023-03-03T22:35:10.130Z,-1.5
2023-03-03T22:40:10.109Z,-1.6
2023-03-03T22:45:10.102Z,-1.8
2023-03-03T22:50:10.131Z,-1.5
2023-03-03T22:55:10.124Z,-1.8
2023-03-03T23:00:10.103Z,-2.1
2023-03-03T23:05:10.143Z,-2.2
2023-03-03T23:10:10.110Z,-2.3
2023-03-03T23:15:10.097Z,-2.1
2023-03-03T23:20:10.103Z,-1.8
2023-03-03T23:25:10.093Z,-1.9
2023-03-03T23:30:10.098Z,-2
2023-03-03T23:35:10.132Z,-2.1
2023-03-03T23:40:10.096Z,-2.2
2023-03-03T23:45:10.108Z,-2.3
2023-03-03T23:50:10.127Z,-2.1
2023-03-03T23:55:10.100Z,-2.1
